Time;durP1;ratioP1;P1;durP2;ratioP2;P2;SDS_P1;SDS_P2;PMS_P1;PMS_P2;Temp;Humidity;BMP_temperature;BMP_pressure;BME280_temperature;BME280_humidity;BME280_pressure;Samples;Min_cycle;Max_cycle;Signal;HPM_P1;HPM_P2
2023/08/19 00:01:14;;;;;;;8.13;7.07;;;;;;;;;;5056434;28;20052;-73
2023/08/19 00:03:41;;;;;;;7.38;6.78;;;;;;;;;;5056946;28;20404;-75
2023/08/19 00:06:10;;;;;;;7.70;6.95;;;;;;;;;;5056330;28;20041;-75
2023/08/19 00:08:36;;;;;;;7.53;6.85;;;;;;;;;;5056179;28;20029;-75
2023/08/19 00:11:02;;;;;;;10.13;7.65;;;;;;;;;;5056306;28;20082;-74
2023/08/19 00:13:28;;;;;;;9.25;7.78;;;;;;;;;;5054660;28;20033;-74
2023/08/19 00:15:53;;;;;;;10.95;8.27;;;;;;;;;;5056095;28;20033;-74
2023/08/19 00:18:19;;;;;;;10.30;9.25;;;;;;;;;;5056066;28;20013;-74
2023/08/19 00:20:44;;;;;;;10.48;9.40;;;;;;;;;;5054745;28;20025;-74
2023/08/19 00:23:10;;;;;;;9.02;8.13;;;;;;;;;;5056347;28;20368;-74
2023/08/19 00:25:35;;;;;;;8.52;7.68;;;;;;;;;;5056212;28;20044;-73
2023/08/19 00:28:03;;;;;;;7.75;7.15;;;;;;;;;;5055788;28;20052;-74
2023/08/19 00:30:29;;;;;;;7.85;7.18;;;;;;;;;;5037671;28;20037;-74
2023/08/19 00:32:55;;;;;;;8.95;7.25;;;;;;;;;;5037834;28;20040;-74
2023/08/19 00:35:20;;;;;;;8.40;7.63;;;;;;;;;;5037517;28;20592;-74
2023/08/19 00:37:46;;;;;;;8.05;7.28;;;;;;;;;;5038196;28;20036;-74
2023/08/19 00:40:12;;;;;;;7.80;7.20;;;;;;;;;;5037569;28;20024;-74
2023/08/19 00:42:39;;;;;;;8.45;7.60;;;;;;;;;;5037519;28;20033;-74
2023/08/19 00:45:05;;;;;;;8.27;7.25;;;;;;;;;;5054244;28;20029;-74
2023/08/19 00:47:30;;;;;;;8.30;7.50;;;;;;;;;;5053858;28;20029;-74
2023/08/19 00:49:56;;;;;;;8.65;7.30;;;;;;;;;;5055900;28;20036;-74
2023/08/19 00:52:21;;;;;;;7.85;7.05;;;;;;;;;;5055477;28;20033;-75
2023/08/19 00:54:47;;;;;;;7.57;6.88;;;;;;;;;;5053798;28;20504;-74
2023/08/19 00:57:12;;;;;;;7.40;6.75;;;;;;;;;;5037212;28;20009;-75
2023/08/19 00:59:38;;;;;;;7.13;6.50;;;;;;;;;;5055277;28;20029;-74
2023/08/19 01:02:03;;;;;;;6.85;6.25;;;;;;;;;;5037102;28;20051;-74
2023/08/19 01:04:29;;;;;;;7.35;6.78;;;;;;;;;;5037509;28;20033;-73
2023/08/19 01:06:59;;;;;;;7.95;7.25;;;;;;;;;;5037578;28;20039;-73
2023/08/19 01:09:24;;;;;;;;;;;;;;;;;;5037531;28;20488;-73
2023/08/19 01:11:56;;;;;;;8.32;7.07;;;;;;;;;;5036783;28;19920;-73
2023/08/19 01:14:28;;;;;;;8.10;7.20;;;;;;;;;;5020579;28;20414;-73
2023/08/19 01:16:54;;;;;;;7.53;6.90;;;;;;;;;;5053475;28;20388;-73
2023/08/19 01:19:25;;;;;;;7.35;6.75;;;;;;;;;;5053459;28;20029;-73
2023/08/19 01:21:52;;;;;;;6.90;6.30;;;;;;;;;;5054892;28;20040;-74
2023/08/19 01:24:20;;;;;;;7.22;6.57;;;;;;;;;;5036653;28;20431;-74
2023/08/19 01:26:45;;;;;;;7.32;6.72;;;;;;;;;;5055197;28;20036;-74
2023/08/19 01:29:11;;;;;;;7.38;6.78;;;;;;;;;;5036392;28;20045;-74
2023/08/19 01:31:36;;;;;;;7.15;6.55;;;;;;;;;;5055084;28;20047;-74
2023/08/19 01:34:02;;;;;;;7.47;6.88;;;;;;;;;;5054698;28;20037;-74
2023/08/19 01:36:41;;;;;;;6.88;6.35;;;;;;;;;;5054201;28;20120;-74
2023/08/19 01:39:09;;;;;;;7.95;7.15;;;;;;;;;;5054565;28;20021;-74
2023/08/19 01:41:36;;;;;;;7.70;7.15;;;;;;;;;;5054694;28;20017;-74
2023/08/19 01:44:02;;;;;;;8.40;7.72;;;;;;;;;;5054679;28;20483;-74
2023/08/19 01:46:27;;;;;;;7.57;6.97;;;;;;;;;;5019714;28;20033;-74
2023/08/19 01:48:52;;;;;;;8.10;7.25;;;;;;;;;;5054532;28;20031;-74
2023/08/19 01:51:18;;;;;;;7.85;7.18;;;;;;;;;;5052843;28;20029;-75
2023/08/19 01:53:43;;;;;;;7.68;7.07;;;;;;;;;;5036145;28;20035;-74
2023/08/19 01:56:09;;;;;;;8.40;7.65;;;;;;;;;;5036045;28;20025;-74
2023/08/19 01:58:35;;;;;;;9.23;8.35;;;;;;;;;;5020252;28;20021;-74
2023/08/19 02:01:00;;;;;;;7.78;7.10;;;;;;;;;;5036753;28;20029;-74
2023/08/19 02:03:26;;;;;;;7.95;7.35;;;;;;;;;;5054164;28;20082;-74
2023/08/19 02:05:51;;;;;;;8.35;7.60;;;;;;;;;;5036134;28;20041;-74
2023/08/19 02:08:17;;;;;;;8.20;7.50;;;;;;;;;;5036000;28;20029;-74
2023/08/19 02:10:42;;;;;;;7.63;7.05;;;;;;;;;;5054065;28;20533;-74
2023/08/19 02:13:08;;;;;;;7.88;7.10;;;;;;;;;;5054309;28;20462;-74
2023/08/19 02:15:34;;;;;;;7.30;6.60;;;;;;;;;;5053631;28;20033;-74
2023/08/19 02:17:59;;;;;;;7.65;7.05;;;;;;;;;;5054387;28;20021;-75
2023/08/19 02:20:24;;;;;;;7.57;6.90;;;;;;;;;;5036553;28;20029;-74
2023/08/19 02:22:50;;;;;;;7.07;6.47;;;;;;;;;;5035770;28;20403;-74
2023/08/19 02:25:16;;;;;;;7.10;6.50;;;;;;;;;;5035721;28;20079;-74
2023/08/19 02:27:42;;;;;;;7.10;6.38;;;;;;;;;;5019124;28;20037;-74
2023/08/19 02:30:07;;;;;;;7.28;6.72;;;;;;;;;;5019802;28;20040;-74
2023/08/19 02:32:34;;;;;;;7.78;6.95;;;;;;;;;;5054074;28;20029;-74
2023/08/19 02:35:00;;;;;;;7.32;6.82;;;;;;;;;;5054105;28;20029;-74
2023/08/19 02:37:26;;;;;;;7.65;6.95;;;;;;;;;;5036333;28;20020;-73
2023/08/19 02:39:51;;;;;;;7.20;6.60;;;;;;;;;;5053692;28;20029;-74
2023/08/19 02:42:17;;;;;;;7.72;7.03;;;;;;;;;;5053374;28;20476;-74
2023/08/19 02:44:43;;;;;;;6.93;6.35;;;;;;;;;;5054084;28;20124;-74
2023/08/19 02:47:08;;;;;;;7.03;6.43;;;;;;;;;;5036009;28;20033;-75
2023/08/19 02:49:33;;;;;;;6.88;6.32;;;;;;;;;;5052155;28;20025;-76
2023/08/19 02:51:59;;;;;;;9.10;7.05;;;;;;;;;;5053904;28;20025;-75
2023/08/19 02:54:24;;;;;;;7.70;7.07;;;;;;;;;;5053555;28;20456;-75
2023/08/19 02:56:50;;;;;;;7.88;7.03;;;;;;;;;;5053185;28;20100;-75
2023/08/19 02:59:15;;;;;;;8.02;7.30;;;;;;;;;;5039817;28;20506;-75
2023/08/19 03:01:41;;;;;;;7.97;7.18;;;;;;;;;;5057596;28;20033;-69
2023/08/19 03:04:07;;;;;;;7.60;6.95;;;;;;;;;;5069979;22;20068;-69
2023/08/19 03:06:35;;;;;;;9.10;8.30;;;;;;;;;;5071456;22;20416;-70
2023/08/19 03:09:00;;;;;;;8.32;7.50;;;;;;;;;;5071412;22;20110;-75
2023/08/19 03:11:41;;;;;;;8.38;7.55;;;;;;;;;;5057823;28;20033;-75
2023/08/19 03:14:07;;;;;;;8.90;8.02;;;;;;;;;;5057820;28;20104;-74
2023/08/19 03:16:40;;;;;;;7.55;6.88;;;;;;;;;;5057145;28;20120;-75
2023/08/19 03:19:05;;;;;;;7.25;6.72;;;;;;;;;;5039062;28;20060;-75
2023/08/19 03:21:33;;;;;;;7.55;6.80;;;;;;;;;;5038958;28;20060;-75
2023/08/19 03:23:58;;;;;;;7.55;6.90;;;;;;;;;;5038944;28;20017;-75
2023/08/19 03:26:24;;;;;;;10.18;7.47;;;;;;;;;;5038892;28;20066;-74
2023/08/19 03:28:49;;;;;;;7.45;6.85;;;;;;;;;;5038856;28;20373;-74
2023/08/19 03:31:15;;;;;;;7.85;7.25;;;;;;;;;;5038827;28;20021;-75
2023/08/19 03:33:41;;;;;;;9.00;8.23;;;;;;;;;;5039043;28;20087;-76
2023/08/19 03:36:07;;;;;;;9.52;8.63;;;;;;;;;;5039125;28;20033;-75
2023/08/19 03:38:33;;;;;;;9.98;8.82;;;;;;;;;;5038681;28;20369;-75
2023/08/19 03:40:59;;;;;;;9.35;8.15;;;;;;;;;;5056498;28;20058;-75
2023/08/19 03:43:26;;;;;;;7.70;6.72;;;;;;;;;;5038537;28;20029;-75
2023/08/19 03:45:52;;;;;;;7.47;6.68;;;;;;;;;;5038560;28;20029;-76
2023/08/19 03:48:17;;;;;;;7.45;6.75;;;;;;;;;;5038499;28;20187;-75
2023/08/19 03:50:43;;;;;;;7.30;6.72;;;;;;;;;;5021962;28;20044;-74
2023/08/19 03:53:08;;;;;;;7.70;7.10;;;;;;;;;;5056348;28;20488;-74
2023/08/19 03:55:34;;;;;;;7.28;6.78;;;;;;;;;;5056553;28;20021;-74
2023/08/19 03:58:00;;;;;;;9.85;6.82;;;;;;;;;;5056313;28;20043;-74
2023/08/19 04:00:25;;;;;;;7.05;6.43;;;;;;;;;;5038355;28;20090;-75
2023/08/19 04:02:51;;;;;;;6.97;6.47;;;;;;;;;;5038298;28;20025;-74
2023/08/19 04:05:16;;;;;;;7.35;6.75;;;;;;;;;;5038183;28;20472;-74
2023/08/19 04:07:42;;;;;;;9.73;7.82;;;;;;;;;;5041801;28;20094;-74
2023/08/19 04:10:08;;;;;;;8.15;7.40;;;;;;;;;;5041152;28;20107;-74
2023/08/19 04:12:33;;;;;;;9.05;8.07;;;;;;;;;;5041340;28;20032;-73
2023/08/19 04:14:58;;;;;;;8.70;7.97;;;;;;;;;;5057934;28;20471;-74
2023/08/19 04:17:24;;;;;;;9.20;8.50;;;;;;;;;;5058089;28;20456;-74
2023/08/19 04:19:50;;;;;;;8.23;7.47;;;;;;;;;;5057873;28;20101;-74
2023/08/19 04:22:16;;;;;;;7.40;6.78;;;;;;;;;;5058190;28;20025;-74
2023/08/19 04:24:41;;;;;;;8.05;7.35;;;;;;;;;;5057914;28;20027;-75
2023/08/19 04:27:08;;;;;;;7.80;7.00;;;;;;;;;;5075935;28;20093;-74
2023/08/19 04:29:34;;;;;;;7.53;6.95;;;;;;;;;;5058429;28;20032;-74
2023/08/19 04:32:01;;;;;;;8.38;7.50;;;;;;;;;;5057798;28;20069;-74
2023/08/19 04:34:27;;;;;;;7.38;6.78;;;;;;;;;;5041234;28;20501;-74
2023/08/19 04:36:53;;;;;;;8.48;7.78;;;;;;;;;;5057434;28;20076;-75
2023/08/19 04:39:18;;;;;;;8.85;8.10;;;;;;;;;;5057390;28;20056;-73
2023/08/19 04:41:44;;;;;;;8.20;7.50;;;;;;;;;;5057185;28;20468;-74
2023/08/19 04:44:11;;;;;;;8.18;7.47;;;;;;;;;;5057129;28;20024;-74
2023/08/19 04:46:38;;;;;;;8.93;8.13;;;;;;;;;;5057165;28;20032;-75
2023/08/19 04:49:09;;;;;;;9.15;8.27;;;;;;;;;;5056759;28;20043;-73
2023/08/19 04:51:35;;;;;;;8.80;8.00;;;;;;;;;;5040073;28;20107;-73
2023/08/19 04:54:00;;;;;;;9.77;8.85;;;;;;;;;;5075011;28;20124;-74
2023/08/19 04:56:26;;;;;;;10.88;8.93;;;;;;;;;;5074779;28;20021;-73
2023/08/19 04:58:52;;;;;;;8.63;7.93;;;;;;;;;;5056284;28;20394;-73
2023/08/19 05:01:18;;;;;;;8.48;7.78;;;;;;;;;;5056097;28;20016;-73
2023/08/19 05:03:43;;;;;;;8.20;7.50;;;;;;;;;;5056768;28;20035;-73
2023/08/19 05:06:09;;;;;;;8.55;7.75;;;;;;;;;;5055985;28;20032;-73
2023/08/19 05:08:38;;;;;;;8.18;7.40;;;;;;;;;;5043254;28;20041;-73
2023/08/19 05:11:03;;;;;;;8.07;7.38;;;;;;;;;;5036461;28;20368;-73
2023/08/19 05:13:29;;;;;;;8.63;7.70;;;;;;;;;;5036460;28;20032;-73
2023/08/19 05:15:54;;;;;;;8.07;7.28;;;;;;;;;;5037176;28;20029;-70
2023/08/19 05:18:20;;;;;;;8.50;7.75;;;;;;;;;;5036799;28;20204;-69
2023/08/19 05:20:45;;;;;;;8.25;7.45;;;;;;;;;;5019207;28;20025;-69
2023/08/19 05:23:11;;;;;;;8.98;8.20;;;;;;;;;;5054910;28;20498;-69
2023/08/19 05:25:37;;;;;;;8.95;8.15;;;;;;;;;;5054874;28;20017;-69
2023/08/19 05:28:03;;;;;;;9.32;8.52;;;;;;;;;;5054672;28;20044;-69
2023/08/19 05:30:28;;;;;;;10.40;9.40;;;;;;;;;;5055219;28;20028;-71
2023/08/19 05:32:55;;;;;;;11.25;10.25;;;;;;;;;;5036742;28;20025;-70
2023/08/19 05:35:20;;;;;;;10.80;9.70;;;;;;;;;;5019649;28;20548;-65
2023/08/19 05:37:47;;;;;;;13.23;9.10;;;;;;;;;;5054829;28;20013;-69
2023/08/19 05:40:12;;;;;;;10.57;8.60;;;;;;;;;;5054389;28;20113;-69
2023/08/19 05:42:37;;;;;;;10.40;9.32;;;;;;;;;;5054522;28;20107;-69
2023/08/19 05:45:03;;;;;;;9.98;9.13;;;;;;;;;;5054586;28;20510;-69
2023/08/19 05:47:29;;;;;;;9.98;8.95;;;;;;;;;;5054413;28;20067;-69
2023/08/19 05:49:54;;;;;;;10.35;9.32;;;;;;;;;;5054383;28;20021;-69
2023/08/19 05:52:19;;;;;;;10.50;9.48;;;;;;;;;;5035662;28;20032;-68
2023/08/19 05:54:45;;;;;;;9.48;8.57;;;;;;;;;;5036170;28;20400;-68
2023/08/19 05:57:10;;;;;;;9.68;8.82;;;;;;;;;;5035908;28;20037;-68
2023/08/19 05:59:35;;;;;;;8.43;7.70;;;;;;;;;;5054149;28;20126;-68
2023/08/19 06:02:01;;;;;;;8.82;7.80;;;;;;;;;;5053888;28;20434;-68
2023/08/19 06:04:26;;;;;;;8.82;8.05;;;;;;;;;;5052173;28;20029;-68
2023/08/19 06:06:52;;;;;;;9.75;8.85;;;;;;;;;;5049731;28;20021;-69
2023/08/19 06:09:17;;;;;;;9.85;8.32;;;;;;;;;;5066260;28;20040;-69
2023/08/19 06:11:46;;;;;;;10.98;9.13;;;;;;;;;;5071392;28;20028;-70
2023/08/19 06:14:11;;;;;;;10.27;8.73;;;;;;;;;;5057226;28;20036;-69
2023/08/19 06:16:37;;;;;;;11.63;9.10;;;;;;;;;;5050948;28;20492;-70
2023/08/19 06:19:02;;;;;;;9.98;8.98;;;;;;;;;;5057567;28;20029;-70
2023/08/19 06:21:28;;;;;;;9.77;8.77;;;;;;;;;;5033133;28;20469;-69
2023/08/19 06:23:53;;;;;;;12.55;8.95;;;;;;;;;;5051273;28;20071;-70
2023/08/19 06:26:18;;;;;;;8.90;8.02;;;;;;;;;;5051886;28;20445;-69
2023/08/19 06:28:44;;;;;;;10.15;7.38;;;;;;;;;;5056474;28;20029;-70
2023/08/19 06:31:10;;;;;;;8.00;7.20;;;;;;;;;;5061319;28;20029;-69
2023/08/19 06:33:35;;;;;;;8.50;7.40;;;;;;;;;;5053938;28;20036;-69
2023/08/19 06:36:01;;;;;;;8.45;7.57;;;;;;;;;;5053766;28;20100;-69
2023/08/19 06:38:28;;;;;;;9.55;7.18;;;;;;;;;;5054166;28;20028;-69
2023/08/19 06:41:07;;;;;;;9.05;8.18;;;;;;;;;;5053699;28;20024;-69
2023/08/19 06:43:33;;;;;;;10.40;7.20;;;;;;;;;;5054145;28;20057;-69
2023/08/19 06:46:00;;;;;;;10.38;7.22;;;;;;;;;;5035194;28;20321;-69
2023/08/19 06:48:26;;;;;;;8.60;7.78;;;;;;;;;;5053627;28;20061;-69
2023/08/19 06:50:52;;;;;;;8.98;8.18;;;;;;;;;;5035170;28;20063;-69
2023/08/19 06:53:18;;;;;;;9.27;8.30;;;;;;;;;;5035499;28;20017;-67
2023/08/19 06:55:47;;;;;;;9.88;8.13;;;;;;;;;;5052587;28;20516;-67
2023/08/19 06:58:16;;;;;;;8.53;7.73;;;;;;;;;;5053137;28;20040;-68
2023/08/19 07:00:43;;;;;;;8.35;7.45;;;;;;;;;;5053153;28;20271;-67
2023/08/19 07:03:08;;;;;;;9.63;8.30;;;;;;;;;;5053136;28;20025;-62
2023/08/19 07:05:34;;;;;;;14.48;7.60;;;;;;;;;;5053101;28;20055;-62
2023/08/19 07:08:01;;;;;;;8.85;7.63;;;;;;;;;;5059225;28;20040;-62
2023/08/19 07:10:26;;;;;;;8.77;8.05;;;;;;;;;;5066627;28;20036;-62
2023/08/19 07:12:52;;;;;;;9.55;8.40;;;;;;;;;;5060829;28;20033;-62
2023/08/19 07:15:17;;;;;;;9.63;8.65;;;;;;;;;;5040686;28;20040;-62
2023/08/19 07:17:44;;;;;;;16.77;8.15;;;;;;;;;;5067116;28;20060;-62
2023/08/19 07:20:13;;;;;;;7.85;7.15;;;;;;;;;;5065162;28;20017;-62
2023/08/19 07:22:41;;;;;;;7.78;6.97;;;;;;;;;;5067799;28;20115;-62
2023/08/19 07:25:07;;;;;;;9.15;8.43;;;;;;;;;;5054542;28;20421;-62
2023/08/19 07:27:33;;;;;;;9.75;8.77;;;;;;;;;;5053323;28;20108;-62
2023/08/19 07:30:01;;;;;;;31.33;8.02;;;;;;;;;;5052893;28;20033;-62
2023/08/19 07:32:27;;;;;;;9.32;7.25;;;;;;;;;;5055467;28;20025;-63
2023/08/19 07:34:52;;;;;;;10.60;8.63;;;;;;;;;;5072446;28;20027;-63
2023/08/19 07:37:19;;;;;;;9.50;8.48;;;;;;;;;;5057249;28;20036;-62
2023/08/19 07:39:45;;;;;;;8.63;7.75;;;;;;;;;;5072247;28;20024;-62
2023/08/19 07:42:10;;;;;;;9.90;9.00;;;;;;;;;;5054096;28;20379;-63
2023/08/19 07:44:35;;;;;;;10.10;9.20;;;;;;;;;;5075411;28;20021;-62
2023/08/19 07:47:01;;;;;;;9.07;8.30;;;;;;;;;;5050900;28;20475;-62
2023/08/19 07:49:26;;;;;;;9.73;8.85;;;;;;;;;;5056475;28;20167;-62
2023/08/19 07:51:51;;;;;;;7.78;7.15;;;;;;;;;;5067629;28;20049;-62
2023/08/19 07:54:21;;;;;;;8.25;7.53;;;;;;;;;;5039019;28;20028;-63
2023/08/19 07:56:47;;;;;;;8.00;7.30;;;;;;;;;;5066371;28;20043;-62
2023/08/19 07:59:12;;;;;;;8.43;7.45;;;;;;;;;;5073319;28;20029;-62
2023/08/19 08:01:37;;;;;;;7.97;7.25;;;;;;;;;;5049599;28;20036;-62
2023/08/19 08:04:04;;;;;;;8.50;7.70;;;;;;;;;;5075216;28;20016;-62
2023/08/19 08:06:29;;;;;;;9.05;7.80;;;;;;;;;;5069601;28;20033;-62
2023/08/19 08:08:55;;;;;;;8.82;8.02;;;;;;;;;;5056676;28;20102;-62
2023/08/19 08:11:20;;;;;;;7.80;7.10;;;;;;;;;;5062625;28;20029;-62
2023/08/19 08:13:46;;;;;;;8.85;7.97;;;;;;;;;;5076197;28;20028;-62
2023/08/19 08:16:12;;;;;;;9.98;8.77;;;;;;;;;;5068464;28;20025;-63
2023/08/19 08:18:37;;;;;;;11.25;9.38;;;;;;;;;;5056362;28;20490;-62
2023/08/19 08:21:06;;;;;;;7.75;7.03;;;;;;;;;;5068095;28;20058;-63
2023/08/19 08:23:32;;;;;;;8.88;7.78;;;;;;;;;;5074358;28;21014;-69
2023/08/19 08:25:58;;;;;;;8.95;8.05;;;;;;;;;;5071013;28;20025;-69
2023/08/19 08:28:23;;;;;;;9.70;8.77;;;;;;;;;;5053305;28;20025;-63
2023/08/19 08:30:48;;;;;;;11.48;9.13;;;;;;;;;;5076129;28;20020;-64
2023/08/19 08:33:14;;;;;;;10.40;9.43;;;;;;;;;;5076133;28;20491;-69
2023/08/19 08:35:39;;;;;;;11.23;10.10;;;;;;;;;;5075720;28;20024;-64
2023/08/19 08:38:04;;;;;;;10.38;9.27;;;;;;;;;;5058281;28;20456;-63
2023/08/19 08:40:31;;;;;;;11.20;9.40;;;;;;;;;;5065521;28;20033;-64
2023/08/19 08:43:03;;;;;;;10.98;9.90;;;;;;;;;;5041453;28;20017;-64
2023/08/19 08:45:31;;;;;;;11.30;9.95;;;;;;;;;;5075850;28;20032;-63
2023/08/19 08:48:16;;;;;;;12.35;9.27;;;;;;;;;;5075848;28;20032;-63
2023/08/19 08:50:41;;;;;;;31.00;7.95;;;;;;;;;;5075700;28;20047;-64
2023/08/19 08:53:07;;;;;;;42.08;7.72;;;;;;;;;;5075492;28;20107;-63
2023/08/19 08:55:33;;;;;;;20.02;8.68;;;;;;;;;;5056818;28;20468;-63
2023/08/19 08:57:59;;;;;;;13.18;9.93;;;;;;;;;;5074350;28;20099;-63
2023/08/19 09:00:24;;;;;;;11.65;9.50;;;;;;;;;;5057377;28;20458;-63
2023/08/19 09:02:50;;;;;;;10.40;9.02;;;;;;;;;;5057623;28;20034;-63
2023/08/19 09:05:17;;;;;;;10.57;9.48;;;;;;;;;;5074779;28;20119;-63
2023/08/19 09:07:46;;;;;;;11.13;9.07;;;;;;;;;;5074986;28;20078;-62
2023/08/19 09:10:13;;;;;;;10.82;9.65;;;;;;;;;;5056856;28;20024;-68
2023/08/19 09:12:39;;;;;;;8.35;7.53;;;;;;;;;;5074174;28;20025;-68
2023/08/19 09:15:05;;;;;;;10.43;9.18;;;;;;;;;;5056688;28;20023;-63
2023/08/19 09:17:32;;;;;;;9.45;8.45;;;;;;;;;;5074455;28;20466;-68
2023/08/19 09:19:57;;;;;;;10.30;6.05;;;;;;;;;;5074651;28;20386;-69
2023/08/19 09:22:23;;;;;;;10.60;6.57;;;;;;;;;;5075107;28;20029;-62
2023/08/19 09:24:50;;;;;;;9.50;8.18;;;;;;;;;;5074704;28;20021;-62
2023/08/19 09:27:26;;;;;;;11.32;7.95;;;;;;;;;;5068028;28;20021;-69
2023/08/19 09:29:52;;;;;;;9.48;8.07;;;;;;;;;;5037770;28;20048;-69
2023/08/19 09:32:27;;;;;;;25.50;8.18;;;;;;;;;;5054536;28;20025;-69
2023/08/19 09:35:06;;;;;;;8.93;8.00;;;;;;;;;;5054039;28;20114;-69
2023/08/19 09:37:32;;;;;;;7.65;6.88;;;;;;;;;;5054658;28;20037;-69
2023/08/19 09:39:57;;;;;;;7.97;6.25;;;;;;;;;;5036685;28;20025;-69
2023/08/19 09:42:23;;;;;;;6.97;6.30;;;;;;;;;;5054219;28;20411;-70
2023/08/19 09:44:48;;;;;;;8.23;7.40;;;;;;;;;;5054245;28;20024;-69
2023/08/19 09:47:14;;;;;;;11.40;7.28;;;;;;;;;;5054280;28;20480;-69
2023/08/19 09:49:39;;;;;;;8.77;7.88;;;;;;;;;;5054295;28;20037;-69
2023/08/19 09:52:05;;;;;;;8.32;7.63;;;;;;;;;;5054246;28;20098;-69
2023/08/19 09:54:30;;;;;;;10.23;7.80;;;;;;;;;;5019761;28;20036;-69
2023/08/19 09:56:56;;;;;;;8.75;8.07;;;;;;;;;;5054449;28;20021;-69
2023/08/19 09:59:23;;;;;;;41.83;8.25;;;;;;;;;;5054255;28;20412;-69
2023/08/19 10:01:49;;;;;;;42.90;8.50;;;;;;;;;;5036153;28;20502;-69
2023/08/19 10:04:14;;;;;;;15.48;7.53;;;;;;;;;;5036274;28;20120;-69
2023/08/19 10:06:42;;;;;;;7.88;7.13;;;;;;;;;;5053736;28;20115;-69
2023/08/19 10:09:08;;;;;;;8.95;7.55;;;;;;;;;;5070575;28;20047;-69
2023/08/19 10:11:35;;;;;;;10.43;7.60;;;;;;;;;;5073693;28;20024;-69
2023/08/19 10:14:03;;;;;;;8.30;5.47;;;;;;;;;;5056108;28;20036;-69
2023/08/19 10:16:29;;;;;;;7.40;6.82;;;;;;;;;;5073955;28;20028;-69
2023/08/19 10:18:56;;;;;;;8.05;7.32;;;;;;;;;;5056322;28;20012;-69
2023/08/19 10:21:22;;;;;;;7.82;7.07;;;;;;;;;;5074335;28;20032;-69
2023/08/19 10:23:48;;;;;;;11.00;6.10;;;;;;;;;;5074026;28;20021;-69
2023/08/19 10:26:14;;;;;;;7.32;6.72;;;;;;;;;;5074165;28;20099;-69
2023/08/19 10:28:40;;;;;;;9.52;7.30;;;;;;;;;;5073866;28;20028;-69
2023/08/19 10:31:15;;;;;;;8.40;7.57;;;;;;;;;;5055682;28;20371;-68
2023/08/19 10:33:43;;;;;;;8.02;7.22;;;;;;;;;;5066062;28;20082;-69
2023/08/19 10:36:10;;;;;;;11.45;5.88;;;;;;;;;;5071131;28;20062;-69
2023/08/19 10:38:42;;;;;;;8.02;7.35;;;;;;;;;;5073733;28;20031;-69
2023/08/19 10:41:26;;;;;;;8.10;7.32;;;;;;;;;;5073758;28;20037;-69
2023/08/19 10:43:59;;;;;;;7.45;6.85;;;;;;;;;;5073731;28;20025;-69
2023/08/19 10:46:25;;;;;;;8.68;7.88;;;;;;;;;;5055416;28;20036;-68
2023/08/19 10:48:51;;;;;;;7.25;6.55;;;;;;;;;;5073548;28;20052;-69
2023/08/19 10:51:19;;;;;;;7.93;7.32;;;;;;;;;;5073566;28;20025;-68
2023/08/19 10:53:48;;;;;;;8.75;7.85;;;;;;;;;;5073614;28;20075;-69
2023/08/19 10:56:14;;;;;;;8.38;6.93;;;;;;;;;;5073243;28;20487;-69
2023/08/19 10:58:40;;;;;;;7.15;6.57;;;;;;;;;;5072851;28;20024;-69
2023/08/19 11:01:05;;;;;;;71.28;14.32;;;;;;;;;;5072958;28;20029;-69
2023/08/19 11:03:31;;;;;;;10.35;7.32;;;;;;;;;;5073347;28;20082;-69
2023/08/19 11:05:56;;;;;;;18.42;6.82;;;;;;;;;;5073316;28;20063;-69
2023/08/19 11:08:22;;;;;;;14.48;7.18;;;;;;;;;;5073018;28;20055;-69
2023/08/19 11:10:49;;;;;;;7.18;6.57;;;;;;;;;;5071487;28;20047;-69
2023/08/19 11:13:15;;;;;;;10.57;7.40;;;;;;;;;;5072514;28;20033;-69
2023/08/19 11:15:40;;;;;;;7.85;7.25;;;;;;;;;;5072676;28;20047;-69
2023/08/19 11:18:06;;;;;;;8.13;7.45;;;;;;;;;;5074481;28;20016;-69
2023/08/19 11:20:31;;;;;;;7.15;6.55;;;;;;;;;;5077077;28;20051;-69
2023/08/19 11:22:57;;;;;;;7.32;6.70;;;;;;;;;;5076999;28;20020;-69
2023/08/19 11:25:32;;;;;;;6.82;6.22;;;;;;;;;;5076872;28;20494;-69
2023/08/19 11:27:58;;;;;;;5.22;4.72;;;;;;;;;;5058927;28;20024;-69
2023/08/19 11:30:23;;;;;;;6.47;5.18;;;;;;;;;;5058419;28;20484;-69
2023/08/19 11:32:49;;;;;;;6.50;5.78;;;;;;;;;;5076779;28;20029;-69
2023/08/19 11:35:14;;;;;;;9.98;6.30;;;;;;;;;;5075629;28;20066;-69
2023/08/19 11:37:41;;;;;;;7.20;6.03;;;;;;;;;;5076546;28;20468;-70
2023/08/19 11:40:06;;;;;;;7.28;6.47;;;;;;;;;;5077212;28;20024;-69
2023/08/19 11:42:32;;;;;;;7.32;6.72;;;;;;;;;;5076851;28;20432;-69
2023/08/19 11:44:58;;;;;;;14.52;6.18;;;;;;;;;;5058099;28;20470;-69
2023/08/19 11:47:24;;;;;;;6.70;6.10;;;;;;;;;;5076280;28;20040;-69
2023/08/19 11:49:50;;;;;;;6.95;6.35;;;;;;;;;;5076398;28;20178;-69
2023/08/19 11:52:21;;;;;;;6.40;5.88;;;;;;;;;;5076516;28;20117;-69
2023/08/19 11:54:57;;;;;;;6.88;6.35;;;;;;;;;;5076206;28;20506;-69
2023/08/19 11:57:23;;;;;;;10.63;6.57;;;;;;;;;;5076949;28;20029;-69
2023/08/19 11:59:48;;;;;;;8.07;7.28;;;;;;;;;;5076570;28;20017;-69
2023/08/19 12:02:15;;;;;;;7.57;6.97;;;;;;;;;;5058787;28;20024;-69
2023/08/19 12:04:40;;;;;;;7.38;6.72;;;;;;;;;;5076543;28;20497;-69
2023/08/19 12:07:09;;;;;;;6.90;6.30;;;;;;;;;;5076905;28;20109;-63
2023/08/19 12:09:39;;;;;;;6.37;5.77;;;;;;;;;;5039002;28;20045;-63
2023/08/19 12:12:09;;;;;;;16.98;6.47;;;;;;;;;;5056305;28;20095;-63
2023/08/19 12:14:35;;;;;;;;;;;;;;;;;;5056744;28;20032;-63
2023/08/19 12:17:00;;;;;;;6.87;6.37;;;;;;;;;;5038700;28;20315;-63
2023/08/19 12:19:25;;;;;;;6.85;5.95;;;;;;;;;;5037132;28;20040;-63
2023/08/19 12:21:51;;;;;;;9.18;6.30;;;;;;;;;;5047917;28;20405;-63
2023/08/19 12:24:16;;;;;;;9.02;7.30;;;;;;;;;;5016821;28;20042;-63
2023/08/19 12:26:42;;;;;;;6.53;5.93;;;;;;;;;;5034838;28;20451;-63
2023/08/19 12:29:07;;;;;;;7.03;6.32;;;;;;;;;;5035591;28;20021;-62
2023/08/19 12:31:33;;;;;;;7.57;6.97;;;;;;;;;;5035512;28;20048;-62
2023/08/19 12:33:59;;;;;;;7.68;6.28;;;;;;;;;;5018359;28;20129;-68
2023/08/19 12:36:24;;;;;;;20.95;16.27;;;;;;;;;;5035587;28;20108;-69
2023/08/19 12:38:49;;;;;;;7.15;6.18;;;;;;;;;;5017680;28;20052;-63
2023/08/19 12:41:15;;;;;;;24.02;7.63;;;;;;;;;;5018309;28;20049;-63
2023/08/19 12:43:47;;;;;;;8.05;6.20;;;;;;;;;;5035778;28;20044;-63
2023/08/19 12:46:16;;;;;;;7.82;7.20;;;;;;;;;;5017900;28;20033;-63
2023/08/19 12:48:41;;;;;;;7.65;6.85;;;;;;;;;;5035638;28;20111;-63
2023/08/19 12:51:07;;;;;;;8.07;7.28;;;;;;;;;;5034473;28;20064;-63
2023/08/19 12:53:33;;;;;;;6.18;5.68;;;;;;;;;;5016961;28;20484;-63
2023/08/19 12:55:59;;;;;;;7.05;6.40;;;;;;;;;;5044860;28;20100;-63
2023/08/19 12:58:24;;;;;;;7.40;6.72;;;;;;;;;;5060474;28;20443;-63
2023/08/19 13:00:49;;;;;;;7.65;7.05;;;;;;;;;;5073431;28;20507;-63
2023/08/19 13:03:15;;;;;;;6.93;6.32;;;;;;;;;;5048374;28;20022;-63
2023/08/19 13:05:40;;;;;;;6.80;6.20;;;;;;;;;;5053754;28;20045;-64
2023/08/19 13:08:05;;;;;;;7.20;6.50;;;;;;;;;;5060374;28;20067;-62
2023/08/19 13:10:31;;;;;;;6.18;5.63;;;;;;;;;;5055421;28;20043;-62
2023/08/19 13:12:57;;;;;;;6.20;5.63;;;;;;;;;;5073596;28;20037;-62
2023/08/19 13:15:23;;;;;;;6.90;6.40;;;;;;;;;;5073404;28;20028;-64
2023/08/19 13:17:48;;;;;;;6.15;5.75;;;;;;;;;;5072819;28;20478;-64
2023/08/19 13:20:17;;;;;;;6.65;6.03;;;;;;;;;;5073360;28;20023;-64
2023/08/19 13:22:42;;;;;;;6.65;6.05;;;;;;;;;;5039896;28;20458;-64
2023/08/19 13:25:08;;;;;;;6.72;6.15;;;;;;;;;;5073477;28;20021;-64
2023/08/19 13:27:33;;;;;;;7.53;6.93;;;;;;;;;;5039713;28;20037;-64
2023/08/19 13:29:59;;;;;;;7.82;6.97;;;;;;;;;;5054117;28;20027;-64
2023/08/19 13:32:24;;;;;;;7.10;6.40;;;;;;;;;;5053837;28;20064;-64
2023/08/19 13:34:50;;;;;;;6.45;5.80;;;;;;;;;;5053949;28;20033;-64
2023/08/19 13:37:15;;;;;;;7.32;6.10;;;;;;;;;;5036160;28;20033;-64
2023/08/19 13:39:41;;;;;;;7.38;6.68;;;;;;;;;;5054266;28;20104;-64
2023/08/19 13:42:06;;;;;;;5.70;5.30;;;;;;;;;;5053283;28;20017;-64
2023/08/19 13:44:32;;;;;;;6.28;5.78;;;;;;;;;;5053837;28;20079;-64
2023/08/19 13:46:58;;;;;;;7.00;6.13;;;;;;;;;;5054183;28;20024;-64
2023/08/19 13:49:24;;;;;;;6.50;5.90;;;;;;;;;;5041486;28;20033;-64
2023/08/19 13:51:50;;;;;;;7.00;6.40;;;;;;;;;;5047979;28;20033;-64
2023/08/19 13:54:17;;;;;;;7.45;6.72;;;;;;;;;;5073521;28;20032;-64
2023/08/19 13:56:52;;;;;;;6.75;6.25;;;;;;;;;;5073462;28;20028;-64
2023/08/19 13:59:17;;;;;;;7.15;6.47;;;;;;;;;;5073116;28;20483;-64
2023/08/19 14:01:43;;;;;;;8.25;7.55;;;;;;;;;;5055732;28;20035;-64
2023/08/19 14:04:09;;;;;;;7.45;6.32;;;;;;;;;;5073035;28;20029;-64
2023/08/19 14:06:34;;;;;;;7.90;7.25;;;;;;;;;;5073750;28;20025;-64
2023/08/19 14:09:00;;;;;;;6.85;6.15;;;;;;;;;;5073622;28;20115;-64
2023/08/19 14:11:25;;;;;;;6.90;6.40;;;;;;;;;;5073429;28;20484;-64
2023/08/19 14:13:51;;;;;;;8.55;6.22;;;;;;;;;;5074099;28;20024;-64
2023/08/19 14:16:35;;;;;;;7.35;6.68;;;;;;;;;;5083563;23;20497;-67
2023/08/19 14:19:07;;;;;;;6.75;6.20;;;;;;;;;;5012303;28;20053;-61
2023/08/19 14:21:34;;;;;;;7.30;6.60;;;;;;;;;;5013824;28;20129;-61
2023/08/19 14:24:00;;;;;;;10.93;9.35;;;;;;;;;;5014150;28;20033;-61
2023/08/19 14:26:28;;;;;;;8.10;7.35;;;;;;;;;;5014111;28;20035;-61
2023/08/19 14:28:53;;;;;;;8.75;6.78;;;;;;;;;;5013834;28;20116;-68
2023/08/19 14:31:19;;;;;;;7.85;7.07;;;;;;;;;;5014423;28;20104;-68
2023/08/19 14:33:44;;;;;;;11.15;7.50;;;;;;;;;;5013992;28;20026;-61
2023/08/19 14:36:09;;;;;;;8.65;7.65;;;;;;;;;;5013915;28;20092;-61